Isla Verde, Puerto Rico
Current Conditions -  °F | °C
As of 8:56 AM on Tuesday 21 Oct 2014 (Local Time) from TJSJ Reporting Station
Scattered Clouds Scattered Clouds  
Wind Chill: 85°   Ceiling: Unl
Heat Index: 93°   Visibility: 10mi
Dew Point: 75°   Wind: 7mph
Humidity: 72%   Direction: NA
Pressure: 29.98"   Gusts: NA
Location:  18.4048°N, 65.9789°W
Report Text: TJSJ 211256Z VRB06KT 10SM FEW030 SCT065 29/24 A2998 RMK AO2 SLP151 T02940239
Loading
Personal Weather Stations






























Interactive Weather Map
Tropical Storm Tracking
New forecast layout! Learn more

10-Day Weather Forecast

Advertisements
Track Severe Weather on mobile